sensor_id;sensor_type;location;lat;lon;timestamp;pressure;altitude;pressure_sealevel;temperature;humidity
16690;BME280;8458;52.220;9.884;2024-03-07T00:00:15;101902.34;;;3.57;84.27
16690;BME280;8458;52.220;9.884;2024-03-07T00:02:43;101897.22;;;3.54;83.95
16690;BME280;8458;52.220;9.884;2024-03-07T00:05:10;101898.94;;;3.55;83.57
16690;BME280;8458;52.220;9.884;2024-03-07T00:07:38;101899.69;;;3.49;83.36
16690;BME280;8458;52.220;9.884;2024-03-07T00:10:05;101909.31;;;3.45;83.78
16690;BME280;8458;52.220;9.884;2024-03-07T00:12:32;101901.19;;;3.36;84.50
16690;BME280;8458;52.220;9.884;2024-03-07T00:14:59;101905.34;;;3.32;84.82
16690;BME280;8458;52.220;9.884;2024-03-07T00:17:27;101906.00;;;3.34;84.85
16690;BME280;8458;52.220;9.884;2024-03-07T00:19:53;101904.78;;;3.37;84.18
16690;BME280;8458;52.220;9.884;2024-03-07T00:22:20;101898.13;;;3.31;84.16
16690;BME280;8458;52.220;9.884;2024-03-07T00:24:46;101899.38;;;3.29;84.37
16690;BME280;8458;52.220;9.884;2024-03-07T00:27:13;101896.53;;;3.22;84.68
16690;BME280;8458;52.220;9.884;2024-03-07T00:29:40;101909.66;;;3.12;84.92
16690;BME280;8458;52.220;9.884;2024-03-07T00:32:07;101895.78;;;3.13;85.90
16690;BME280;8458;52.220;9.884;2024-03-07T00:34:35;101900.38;;;3.13;86.05
16690;BME280;8458;52.220;9.884;2024-03-07T00:37:02;101899.72;;;3.11;85.93
16690;BME280;8458;52.220;9.884;2024-03-07T00:39:28;101894.91;;;3.13;85.74
16690;BME280;8458;52.220;9.884;2024-03-07T00:41:55;101899.53;;;3.12;85.38
16690;BME280;8458;52.220;9.884;2024-03-07T00:44:21;101904.03;;;3.05;85.73
16690;BME280;8458;52.220;9.884;2024-03-07T00:46:48;101900.75;;;3.10;86.02
16690;BME280;8458;52.220;9.884;2024-03-07T00:49:14;101901.44;;;3.12;86.52
16690;BME280;8458;52.220;9.884;2024-03-07T00:51:42;101902.09;;;3.14;86.54
16690;BME280;8458;52.220;9.884;2024-03-07T00:54:09;101900.00;;;3.16;86.04
16690;BME280;8458;52.220;9.884;2024-03-07T00:56:38;101891.13;;;3.14;85.44
16690;BME280;8458;52.220;9.884;2024-03-07T00:59:04;101884.81;;;3.13;84.75
16690;BME280;8458;52.220;9.884;2024-03-07T01:01:31;101877.56;;;2.97;84.34
16690;BME280;8458;52.220;9.884;2024-03-07T01:03:59;101886.53;;;2.91;84.65
16690;BME280;8458;52.220;9.884;2024-03-07T01:06:25;101881.91;;;2.92;85.24
16690;BME280;8458;52.220;9.884;2024-03-07T01:08:53;101885.22;;;2.87;85.67
16690;BME280;8458;52.220;9.884;2024-03-07T01:11:20;101888.44;;;2.67;84.62
16690;BME280;8458;52.220;9.884;2024-03-07T01:13:46;101886.69;;;2.51;85.08
16690;BME280;8458;52.220;9.884;2024-03-07T01:16:13;101880.66;;;2.56;85.45
16690;BME280;8458;52.220;9.884;2024-03-07T01:18:39;101888.03;;;2.56;85.78
16690;BME280;8458;52.220;9.884;2024-03-07T01:21:06;101893.00;;;2.52;86.46
16690;BME280;8458;52.220;9.884;2024-03-07T01:23:33;101888.16;;;2.62;86.49
16690;BME280;8458;52.220;9.884;2024-03-07T01:26:01;101887.50;;;2.60;86.49
16690;BME280;8458;52.220;9.884;2024-03-07T01:28:28;101896.66;;;2.67;86.39
16690;BME280;8458;52.220;9.884;2024-03-07T01:30:55;101887.06;;;2.72;86.39
16690;BME280;8458;52.220;9.884;2024-03-07T01:33:22;101893.19;;;2.74;86.17
16690;BME280;8458;52.220;9.884;2024-03-07T01:35:49;101895.56;;;2.77;86.37
16690;BME280;8458;52.220;9.884;2024-03-07T01:38:15;101887.16;;;2.78;85.96
16690;BME280;8458;52.220;9.884;2024-03-07T01:40:43;101888.38;;;2.76;85.36
16690;BME280;8458;52.220;9.884;2024-03-07T01:43:11;101887.22;;;2.70;85.60
16690;BME280;8458;52.220;9.884;2024-03-07T01:45:38;101882.22;;;2.74;86.21
16690;BME280;8458;52.220;9.884;2024-03-07T01:48:04;101876.28;;;2.70;86.33
16690;BME280;8458;52.220;9.884;2024-03-07T01:50:31;101880.22;;;2.67;86.32
16690;BME280;8458;52.220;9.884;2024-03-07T01:52:59;101879.19;;;2.68;86.64
16690;BME280;8458;52.220;9.884;2024-03-07T01:55:26;101884.06;;;2.58;87.28
16690;BME280;8458;52.220;9.884;2024-03-07T01:57:56;101883.75;;;2.53;88.08
16690;BME280;8458;52.220;9.884;2024-03-07T02:00:25;101877.31;;;2.46;88.54
16690;BME280;8458;52.220;9.884;2024-03-07T02:02:53;101881.69;;;2.55;88.68
16690;BME280;8458;52.220;9.884;2024-03-07T02:05:20;101876.22;;;2.55;88.55
16690;BME280;8458;52.220;9.884;2024-03-07T02:07:47;101878.03;;;2.63;88.56
16690;BME280;8458;52.220;9.884;2024-03-07T02:10:15;101876.66;;;2.67;88.91
16690;BME280;8458;52.220;9.884;2024-03-07T02:12:42;101870.78;;;2.70;88.78
16690;BME280;8458;52.220;9.884;2024-03-07T02:15:10;101872.00;;;2.67;88.39
16690;BME280;8458;52.220;9.884;2024-03-07T02:17:40;101875.94;;;2.65;88.44
16690;BME280;8458;52.220;9.884;2024-03-07T02:20:09;101872.66;;;2.69;88.22
16690;BME280;8458;52.220;9.884;2024-03-07T02:22:37;101865.31;;;2.70;88.43
16690;BME280;8458;52.220;9.884;2024-03-07T02:25:04;101868.53;;;2.74;88.24
16690;BME280;8458;52.220;9.884;2024-03-07T02:27:31;101871.09;;;2.75;88.25
16690;BME280;8458;52.220;9.884;2024-03-07T02:29:58;101864.94;;;2.73;88.46
16690;BME280;8458;52.220;9.884;2024-03-07T02:32:24;101869.28;;;2.67;89.06
16690;BME280;8458;52.220;9.884;2024-03-07T02:34:52;101863.06;;;2.74;89.00
16690;BME280;8458;52.220;9.884;2024-03-07T02:37:18;101859.28;;;2.75;88.29
16690;BME280;8458;52.220;9.884;2024-03-07T02:39:46;101853.69;;;2.68;88.56
16690;BME280;8458;52.220;9.884;2024-03-07T02:42:12;101847.00;;;2.71;88.53
16690;BME280;8458;52.220;9.884;2024-03-07T02:44:39;101850.38;;;2.73;88.62
16690;BME280;8458;52.220;9.884;2024-03-07T02:47:06;101848.69;;;2.72;88.90
16690;BME280;8458;52.220;9.884;2024-03-07T02:49:32;101845.97;;;2.72;88.88
16690;BME280;8458;52.220;9.884;2024-03-07T02:51:59;101843.88;;;2.74;88.77
16690;BME280;8458;52.220;9.884;2024-03-07T02:54:26;101841.13;;;2.74;88.88
16690;BME280;8458;52.220;9.884;2024-03-07T02:56:54;101846.16;;;2.70;89.15
16690;BME280;8458;52.220;9.884;2024-03-07T02:59:20;101845.63;;;2.66;89.59
16690;BME280;8458;52.220;9.884;2024-03-07T03:01:47;101850.66;;;2.63;89.37
16690;BME280;8458;52.220;9.884;2024-03-07T03:04:13;101842.91;;;2.66;89.47
16690;BME280;8458;52.220;9.884;2024-03-07T03:06:40;101845.63;;;2.66;88.86
16690;BME280;8458;52.220;9.884;2024-03-07T03:09:06;101842.25;;;2.64;89.08
16690;BME280;8458;52.220;9.884;2024-03-07T03:11:38;101851.13;;;2.66;89.21
16690;BME280;8458;52.220;9.884;2024-03-07T03:14:06;101842.34;;;2.71;89.17
16690;BME280;8458;52.220;9.884;2024-03-07T03:16:32;101834.31;;;2.69;89.08
16690;BME280;8458;52.220;9.884;2024-03-07T03:18:58;101836.41;;;2.67;88.76
16690;BME280;8458;52.220;9.884;2024-03-07T03:21:25;101832.63;;;2.68;88.74
16690;BME280;8458;52.220;9.884;2024-03-07T03:23:52;101830.19;;;2.74;88.87
16690;BME280;8458;52.220;9.884;2024-03-07T03:26:20;101840.31;;;2.73;88.95
16690;BME280;8458;52.220;9.884;2024-03-07T03:28:47;101838.59;;;2.72;89.34
16690;BME280;8458;52.220;9.884;2024-03-07T03:31:14;101834.31;;;2.69;90.10
16690;BME280;8458;52.220;9.884;2024-03-07T03:33:41;101833.75;;;2.74;90.39
16690;BME280;8458;52.220;9.884;2024-03-07T03:36:07;101830.19;;;2.74;90.49
16690;BME280;8458;52.220;9.884;2024-03-07T03:38:34;101817.13;;;2.76;90.62
16690;BME280;8458;52.220;9.884;2024-03-07T03:41:01;101826.03;;;2.78;91.04
16690;BME280;8458;52.220;9.884;2024-03-07T03:43:30;101833.56;;;2.76;91.24
16690;BME280;8458;52.220;9.884;2024-03-07T03:45:57;101828.66;;;2.71;91.98
16690;BME280;8458;52.220;9.884;2024-03-07T03:48:25;101825.69;;;2.81;92.18
16690;BME280;8458;52.220;9.884;2024-03-07T03:50:52;101824.06;;;2.86;92.21
16690;BME280;8458;52.220;9.884;2024-03-07T03:53:19;101827.50;;;2.89;92.39
16690;BME280;8458;52.220;9.884;2024-03-07T03:55:45;101823.88;;;2.88;92.61
16690;BME280;8458;52.220;9.884;2024-03-07T03:58:12;101820.56;;;2.93;92.77
16690;BME280;8458;52.220;9.884;2024-03-07T04:00:39;101828.78;;;2.93;93.05
16690;BME280;8458;52.220;9.884;2024-03-07T04:03:05;101831.34;;;2.94;93.52
16690;BME280;8458;52.220;9.884;2024-03-07T04:05:33;101819.66;;;3.00;93.65
16690;BME280;8458;52.220;9.884;2024-03-07T04:08:00;101826.75;;;2.95;93.78
16690;BME280;8458;52.220;9.884;2024-03-07T04:10:26;101820.56;;;2.93;94.33
16690;BME280;8458;52.220;9.884;2024-03-07T04:12:53;101824.19;;;2.93;94.63
16690;BME280;8458;52.220;9.884;2024-03-07T04:15:19;101821.31;;;2.86;94.88
16690;BME280;8458;52.220;9.884;2024-03-07T04:17:47;101820.28;;;2.87;95.27
16690;BME280;8458;52.220;9.884;2024-03-07T04:20:13;101816.34;;;2.90;95.52
16690;BME280;8458;52.220;9.884;2024-03-07T04:22:43;101818.72;;;2.93;95.60
16690;BME280;8458;52.220;9.884;2024-03-07T04:25:10;101815.66;;;2.88;96.01
16690;BME280;8458;52.220;9.884;2024-03-07T04:27:38;101817.00;;;2.92;96.32
16690;BME280;8458;52.220;9.884;2024-03-07T04:30:06;101817.47;;;2.96;96.16
16690;BME280;8458;52.220;9.884;2024-03-07T04:32:35;101809.19;;;3.04;96.06
16690;BME280;8458;52.220;9.884;2024-03-07T04:35:02;101807.94;;;3.07;95.99
16690;BME280;8458;52.220;9.884;2024-03-07T04:37:32;101812.38;;;3.08;96.07
16690;BME280;8458;52.220;9.884;2024-03-07T04:40:03;101810.59;;;3.15;95.95
16690;BME280;8458;52.220;9.884;2024-03-07T04:42:36;101817.31;;;3.12;96.18
16690;BME280;8458;52.220;9.884;2024-03-07T04:45:03;101823.25;;;3.16;96.24
16690;BME280;8458;52.220;9.884;2024-03-07T04:47:30;101811.53;;;3.22;96.29
16690;BME280;8458;52.220;9.884;2024-03-07T04:49:57;101816.19;;;3.21;96.47
16690;BME280;8458;52.220;9.884;2024-03-07T04:52:23;101813.06;;;3.25;96.80
16690;BME280;8458;52.220;9.884;2024-03-07T04:54:49;101812.03;;;3.26;96.99
16690;BME280;8458;52.220;9.884;2024-03-07T04:57:17;101817.59;;;3.32;97.13
16690;BME280;8458;52.220;9.884;2024-03-07T04:59:44;101810.03;;;3.34;97.09
16690;BME280;8458;52.220;9.884;2024-03-07T05:02:10;101814.47;;;3.35;96.88
16690;BME280;8458;52.220;9.884;2024-03-07T05:04:36;101812.19;;;3.39;96.88
16690;BME280;8458;52.220;9.884;2024-03-07T05:07:03;101823.16;;;3.39;96.89
16690;BME280;8458;52.220;9.884;2024-03-07T05:09:29;101814.75;;;3.40;96.79
16690;BME280;8458;52.220;9.884;2024-03-07T05:11:56;101825.72;;;3.40;96.71
16690;BME280;8458;52.220;9.884;2024-03-07T05:14:24;101826.09;;;3.37;96.88
16690;BME280;8458;52.220;9.884;2024-03-07T05:16:51;101814.09;;;3.38;97.23
16690;BME280;8458;52.220;9.884;2024-03-07T05:19:30;101812.31;;;3.46;97.28
16690;BME280;8458;52.220;9.884;2024-03-07T05:21:57;101809.25;;;3.40;97.47
16690;BME280;8458;52.220;9.884;2024-03-07T05:24:23;101815.25;;;3.44;97.66
16690;BME280;8458;52.220;9.884;2024-03-07T05:26:50;101820.72;;;3.44;98.28
16690;BME280;8458;52.220;9.884;2024-03-07T05:29:18;101820.16;;;3.49;98.60
16690;BME280;8458;52.220;9.884;2024-03-07T05:31:46;101819.41;;;3.40;99.49
16690;BME280;8458;52.220;9.884;2024-03-07T05:34:13;101815.69;;;3.48;100.00
16690;BME280;8458;52.220;9.884;2024-03-07T05:36:40;101817.69;;;3.54;100.00
16690;BME280;8458;52.220;9.884;2024-03-07T05:39:09;101816.66;;;3.55;100.00
16690;BME280;8458;52.220;9.884;2024-03-07T05:41:36;101818.81;;;3.59;100.00
16690;BME280;8458;52.220;9.884;2024-03-07T05:44:03;101830.63;;;3.60;100.00
16690;BME280;8458;52.220;9.884;2024-03-07T05:46:33;101820.31;;;3.62;100.00
16690;BME280;8458;52.220;9.884;2024-03-07T05:49:02;101818.81;;;3.59;100.00
16690;BME280;8458;52.220;9.884;2024-03-07T05:51:29;101824.31;;;3.59;100.00
16690;BME280;8458;52.220;9.884;2024-03-07T05:53:55;101825.59;;;3.64;100.00
16690;BME280;8458;52.220;9.884;2024-03-07T05:56:22;101828.16;;;3.65;100.00
16690;BME280;8458;52.220;9.884;2024-03-07T05:58:48;101830.72;;;3.67;100.00
16690;BME280;8458;52.220;9.884;2024-03-07T06:01:16;101827.59;;;3.70;100.00
16690;BME280;8458;52.220;9.884;2024-03-07T06:03:43;101831.19;;;3.70;100.00
16690;BME280;8458;52.220;9.884;2024-03-07T06:06:11;101833.28;;;3.68;100.00
16690;BME280;8458;52.220;9.884;2024-03-07T06:08:38;101826.94;;;3.68;100.00
16690;BME280;8458;52.220;9.884;2024-03-07T06:11:07;101833.06;;;3.70;100.00
16690;BME280;8458;52.220;9.884;2024-03-07T06:13:34;101834.59;;;3.72;100.00
16690;BME280;8458;52.220;9.884;2024-03-07T06:16:00;101834.59;;;3.72;100.00
16690;BME280;8458;52.220;9.884;2024-03-07T06:18:29;101829.50;;;3.69;100.00
16690;BME280;8458;52.220;9.884;2024-03-07T06:20:56;101829.13;;;3.72;100.00
16690;BME280;8458;52.220;9.884;2024-03-07T06:23:24;101836.31;;;3.73;100.00
16690;BME280;8458;52.220;9.884;2024-03-07T06:25:54;101834.88;;;3.77;100.00
16690;BME280;8458;52.220;9.884;2024-03-07T06:28:21;101839.31;;;3.79;100.00
16690;BME280;8458;52.220;9.884;2024-03-07T06:30:47;101843.09;;;3.77;100.00
16690;BME280;8458;52.220;9.884;2024-03-07T06:33:14;101834.41;;;3.74;100.00
16690;BME280;8458;52.220;9.884;2024-03-07T06:35:42;101836.78;;;3.77;100.00
16690;BME280;8458;52.220;9.884;2024-03-07T06:38:09;101843.59;;;3.81;100.00
16690;BME280;8458;52.220;9.884;2024-03-07T06:40:38;101842.31;;;3.84;100.00
16690;BME280;8458;52.220;9.884;2024-03-07T06:43:05;101841.28;;;3.85;100.00
16690;BME280;8458;52.220;9.884;2024-03-07T06:45:32;101845.75;;;3.86;100.00
16690;BME280;8458;52.220;9.884;2024-03-07T06:47:59;101855.03;;;3.85;100.00
16690;BME280;8458;52.220;9.884;2024-03-07T06:50:25;101844.69;;;3.87;100.00
16690;BME280;8458;52.220;9.884;2024-03-07T06:52:54;101843.28;;;3.91;100.00
16690;BME280;8458;52.220;9.884;2024-03-07T06:55:20;101837.78;;;3.91;100.00
16690;BME280;8458;52.220;9.884;2024-03-07T06:57:48;101834.41;;;3.89;100.00
16690;BME280;8458;52.220;9.884;2024-03-07T07:00:15;101839.31;;;3.93;100.00
16690;BME280;8458;52.220;9.884;2024-03-07T07:02:44;101844.13;;;3.91;100.00
16690;BME280;8458;52.220;9.884;2024-03-07T07:05:11;101839.88;;;3.89;100.00
16690;BME280;8458;52.220;9.884;2024-03-07T07:07:37;101841.19;;;3.93;100.00
16690;BME280;8458;52.220;9.884;2024-03-07T07:10:05;101848.31;;;3.87;100.00
16690;BME280;8458;52.220;9.884;2024-03-07T07:12:34;101842.25;;;3.92;100.00
16690;BME280;8458;52.220;9.884;2024-03-07T07:15:02;101841.19;;;3.93;100.00
16690;BME280;8458;52.220;9.884;2024-03-07T07:17:30;101847.03;;;3.90;100.00
16690;BME280;8458;52.220;9.884;2024-03-07T07:19:57;101845.81;;;3.92;100.00
16690;BME280;8458;52.220;9.884;2024-03-07T07:22:24;101848.00;;;3.97;100.00
16690;BME280;8458;52.220;9.884;2024-03-07T07:24:51;101848.38;;;3.94;100.00
16690;BME280;8458;52.220;9.884;2024-03-07T07:27:18;101843.53;;;3.96;100.00
16690;BME280;8458;52.220;9.884;2024-03-07T07:29:44;101846.28;;;3.96;100.00
16690;BME280;8458;52.220;9.884;2024-03-07T07:32:12;101849.28;;;4.01;100.00
16690;BME280;8458;52.220;9.884;2024-03-07T07:34:39;101837.09;;;4.04;100.00
16690;BME280;8458;52.220;9.884;2024-03-07T07:37:07;101841.72;;;4.03;100.00
16690;BME280;8458;52.220;9.884;2024-03-07T07:39:34;101845.13;;;4.05;100.00
16690;BME280;8458;52.220;9.884;2024-03-07T07:42:01;101840.09;;;4.09;100.00
16690;BME280;8458;52.220;9.884;2024-03-07T07:44:27;101835.47;;;4.09;100.00
16690;BME280;8458;52.220;9.884;2024-03-07T07:46:55;101839.91;;;4.10;100.00
16690;BME280;8458;52.220;9.884;2024-03-07T07:49:22;101840.84;;;4.18;100.00
16690;BME280;8458;52.220;9.884;2024-03-07T07:51:49;101832.97;;;4.15;100.00
16690;BME280;8458;52.220;9.884;2024-03-07T07:54:15;101830.50;;;4.20;100.00
16690;BME280;8458;52.220;9.884;2024-03-07T07:56:43;101841.09;;;4.23;100.00
16690;BME280;8458;52.220;9.884;2024-03-07T07:59:09;101833.13;;;4.28;100.00
16690;BME280;8458;52.220;9.884;2024-03-07T08:01:36;101831.03;;;4.30;100.00
16690;BME280;8458;52.220;9.884;2024-03-07T08:04:03;101827.25;;;4.31;100.00
16690;BME280;8458;52.220;9.884;2024-03-07T08:06:31;101824.75;;;4.36;100.00
16690;BME280;8458;52.220;9.884;2024-03-07T08:08:57;101828.16;;;4.38;100.00
16690;BME280;8458;52.220;9.884;2024-03-07T08:11:24;101822.25;;;4.41;100.00
16690;BME280;8458;52.220;9.884;2024-03-07T08:13:50;101820.97;;;4.37;100.00
16690;BME280;8458;52.220;9.884;2024-03-07T08:16:17;101821.81;;;4.38;100.00
16690;BME280;8458;52.220;9.884;2024-03-07T08:18:44;101829.47;;;4.42;100.00
16690;BME280;8458;52.220;9.884;2024-03-07T08:21:11;101831.19;;;4.43;100.00
16690;BME280;8458;52.220;9.884;2024-03-07T08:23:39;101823.59;;;4.45;100.00
16690;BME280;8458;52.220;9.884;2024-03-07T08:26:06;101824.22;;;4.47;100.00
16690;BME280;8458;52.220;9.884;2024-03-07T08:28:33;101816.91;;;4.55;100.00
16690;BME280;8458;52.220;9.884;2024-03-07T08:30:58;101825.94;;;4.48;100.00
16690;BME280;8458;52.220;9.884;2024-03-07T08:33:25;101826.38;;;4.52;100.00
16690;BME280;8458;52.220;9.884;2024-03-07T08:35:52;101822.41;;;4.55;100.00
16690;BME280;8458;52.220;9.884;2024-03-07T08:38:19;101819.50;;;4.63;100.00
16690;BME280;8458;52.220;9.884;2024-03-07T08:40:46;101820.19;;;4.65;100.00
16690;BME280;8458;52.220;9.884;2024-03-07T08:43:13;101812.78;;;4.65;100.00
16690;BME280;8458;52.220;9.884;2024-03-07T08:45:40;101818.06;;;4.67;100.00
16690;BME280;8458;52.220;9.884;2024-03-07T08:48:07;101811.53;;;4.68;100.00
16690;BME280;8458;52.220;9.884;2024-03-07T08:50:34;101814.16;;;4.76;100.00
16690;BME280;8458;52.220;9.884;2024-03-07T08:53:03;101804.66;;;4.79;100.00
16690;BME280;8458;52.220;9.884;2024-03-07T08:55:30;101810.00;;;4.87;100.00
16690;BME280;8458;52.220;9.884;2024-03-07T08:57:58;101814.50;;;4.95;100.00
16690;BME280;8458;52.220;9.884;2024-03-07T09:00:24;101813.91;;;4.99;100.00
16690;BME280;8458;52.220;9.884;2024-03-07T09:02:53;101814.13;;;5.05;100.00
16690;BME280;8458;52.220;9.884;2024-03-07T09:05:21;101811.00;;;5.08;100.00
16690;BME280;8458;52.220;9.884;2024-03-07T09:07:48;101813.09;;;5.06;100.00
16690;BME280;8458;52.220;9.884;2024-03-07T09:10:15;101811.19;;;5.06;100.00
16690;BME280;8458;52.220;9.884;2024-03-07T09:12:42;101808.72;;;5.11;100.00
16690;BME280;8458;52.220;9.884;2024-03-07T09:15:10;101813.53;;;5.09;100.00
16690;BME280;8458;52.220;9.884;2024-03-07T09:17:37;101811.25;;;5.13;100.00
16690;BME280;8458;52.220;9.884;2024-03-07T09:20:05;101810.25;;;5.20;100.00
16690;BME280;8458;52.220;9.884;2024-03-07T09:22:31;101809.19;;;5.21;100.00
16690;BME280;8458;52.220;9.884;2024-03-07T09:24:58;101812.59;;;5.24;100.00
16690;BME280;8458;52.220;9.884;2024-03-07T09:27:25;101801.41;;;5.25;100.00
16690;BME280;8458;52.220;9.884;2024-03-07T09:29:51;101801.19;;;5.27;100.00
16690;BME280;8458;52.220;9.884;2024-03-07T09:32:19;101806.06;;;5.31;100.00
16690;BME280;8458;52.220;9.884;2024-03-07T09:34:47;101803.50;;;5.30;100.00
16690;BME280;8458;52.220;9.884;2024-03-07T09:37:15;101801.03;;;5.35;100.00
16690;BME280;8458;52.220;9.884;2024-03-07T09:39:41;101807.78;;;5.39;100.00
16690;BME280;8458;52.220;9.884;2024-03-07T09:42:08;101801.88;;;5.42;100.00
16690;BME280;8458;52.220;9.884;2024-03-07T09:44:36;101807.59;;;5.41;100.00
16690;BME280;8458;52.220;9.884;2024-03-07T09:47:05;101805.03;;;5.39;100.00
16690;BME280;8458;52.220;9.884;2024-03-07T09:49:33;101804.84;;;5.41;100.00
16690;BME280;8458;52.220;9.884;2024-03-07T09:52:04;101804.84;;;5.41;100.00
16690;BME280;8458;52.220;9.884;2024-03-07T09:54:33;101801.88;;;5.42;100.00
16690;BME280;8458;52.220;9.884;2024-03-07T09:57:02;101800.63;;;5.45;100.00
16690;BME280;8458;52.220;9.884;2024-03-07T09:59:32;101790.06;;;5.48;100.00
16690;BME280;8458;52.220;9.884;2024-03-07T10:02:02;101796.47;;;5.55;100.00
16690;BME280;8458;52.220;9.884;2024-03-07T10:04:31;101784.63;;;5.62;100.00
16690;BME280;8458;52.220;9.884;2024-03-07T10:07:04;101787.19;;;5.70;100.00
16690;BME280;8458;52.220;9.884;2024-03-07T10:09:30;101787.25;;;5.83;100.00
16690;BME280;8458;52.220;9.884;2024-03-07T10:12:01;101791.38;;;6.01;100.00
16690;BME280;8458;52.220;9.884;2024-03-07T10:14:32;101792.88;;;6.10;100.00
16690;BME280;8458;52.220;9.884;2024-03-07T10:16:58;101786.53;;;6.16;100.00
16690;BME280;8458;52.220;9.884;2024-03-07T10:19:25;101789.53;;;6.21;100.00
16690;BME280;8458;52.220;9.884;2024-03-07T10:21:52;101788.91;;;6.26;100.00
16690;BME280;8458;52.220;9.884;2024-03-07T10:24:25;101784.22;;;6.26;100.00
16690;BME280;8458;52.220;9.884;2024-03-07T10:26:52;101793.97;;;6.22;100.00
16690;BME280;8458;52.220;9.884;2024-03-07T10:29:21;101778.09;;;6.24;100.00
16690;BME280;8458;52.220;9.884;2024-03-07T10:31:49;101789.31;;;6.30;100.00
16690;BME280;8458;52.220;9.884;2024-03-07T10:34:15;101787.19;;;6.32;100.00
16690;BME280;8458;52.220;9.884;2024-03-07T10:36:43;101783.59;;;6.38;100.00
16690;BME280;8458;52.220;9.884;2024-03-07T10:39:11;101780.22;;;6.42;100.00
16690;BME280;8458;52.220;9.884;2024-03-07T10:41:44;101787.44;;;6.37;100.00
16690;BME280;8458;52.220;9.884;2024-03-07T10:44:19;101782.97;;;6.29;100.00
16690;BME280;8458;52.220;9.884;2024-03-07T10:46:51;101773.00;;;6.21;100.00
16690;BME280;8458;52.220;9.884;2024-03-07T10:49:19;101777.84;;;6.19;100.00
16690;BME280;8458;52.220;9.884;2024-03-07T10:51:55;101770.84;;;6.10;100.00
16690;BME280;8458;52.220;9.884;2024-03-07T10:54:32;101772.13;;;6.21;100.00
16690;BME280;8458;52.220;9.884;2024-03-07T10:57:06;101771.75;;;6.31;100.00
16690;BME280;8458;52.220;9.884;2024-03-07T10:59:41;101770.06;;;6.43;100.00
16690;BME280;8458;52.220;9.884;2024-03-07T11:02:20;101764.53;;;6.50;100.00
16690;BME280;8458;52.220;9.884;2024-03-07T11:04:52;101771.34;;;6.60;100.00
16690;BME280;8458;52.220;9.884;2024-03-07T11:07:20;101771.31;;;6.74;100.00
16690;BME280;8458;52.220;9.884;2024-03-07T11:09:49;101759.84;;;6.77;100.00
16690;BME280;8458;52.220;9.884;2024-03-07T11:12:19;101765.16;;;6.85;100.00
16690;BME280;8458;52.220;9.884;2024-03-07T11:14:49;101767.69;;;6.93;100.00
16690;BME280;8458;52.220;9.884;2024-03-07T11:17:17;101764.31;;;6.91;100.00
16690;BME280;8458;52.220;9.884;2024-03-07T11:19:44;101763.25;;;6.99;100.00
16690;BME280;8458;52.220;9.884;2024-03-07T11:22:28;101755.41;;;6.96;97.22
16690;BME280;8458;52.220;9.884;2024-03-07T11:25:00;101751.59;;;6.90;96.40
16690;BME280;8458;52.220;9.884;2024-03-07T11:27:33;101747.53;;;6.86;96.40
16690;BME280;8458;52.220;9.884;2024-03-07T11:30:07;101753.94;;;6.87;97.38
16690;BME280;8458;52.220;9.884;2024-03-07T11:32:34;101747.97;;;6.83;97.58
16690;BME280;8458;52.220;9.884;2024-03-07T11:35:04;101747.13;;;6.89;98.90
16690;BME280;8458;52.220;9.884;2024-03-07T11:37:39;101744.56;;;7.01;98.43
16690;BME280;8458;52.220;9.884;2024-03-07T11:40:10;101734.81;;;7.05;94.22
16690;BME280;8458;52.220;9.884;2024-03-07T11:42:46;101740.47;;;7.17;94.39
16690;BME280;8458;52.220;9.884;2024-03-07T11:45:14;101734.97;;;7.17;92.02
16690;BME280;8458;52.220;9.884;2024-03-07T11:47:50;101733.94;;;7.11;93.65
16690;BME280;8458;52.220;9.884;2024-03-07T11:50:23;101740.50;;;7.24;93.19
16690;BME280;8458;52.220;9.884;2024-03-07T11:52:51;101726.66;;;7.30;92.21
16690;BME280;8458;52.220;9.884;2024-03-07T11:55:18;101719.84;;;7.40;91.88
16690;BME280;8458;52.220;9.884;2024-03-07T11:57:46;101727.03;;;7.47;90.00
16690;BME280;8458;52.220;9.884;2024-03-07T12:00:14;101722.81;;;7.38;85.63
16690;BME280;8458;52.220;9.884;2024-03-07T12:02:42;101712.44;;;7.33;86.63
16690;BME280;8458;52.220;9.884;2024-03-07T12:05:10;101714.34;;;7.33;89.25
16690;BME280;8458;52.220;9.884;2024-03-07T12:07:41;101717.03;;;7.46;88.72
16690;BME280;8458;52.220;9.884;2024-03-07T12:10:08;101717.88;;;7.53;86.54
16690;BME280;8458;52.220;9.884;2024-03-07T12:12:36;101706.97;;;7.65;85.75
16690;BME280;8458;52.220;9.884;2024-03-07T12:15:06;101719.31;;;7.63;82.88
16690;BME280;8458;52.220;9.884;2024-03-07T12:17:41;101704.00;;;7.67;82.46
16690;BME280;8458;52.220;9.884;2024-03-07T12:20:08;101693.34;;;7.70;81.26
16690;BME280;8458;52.220;9.884;2024-03-07T12:22:50;101697.22;;;7.63;78.84
16690;BME280;8458;52.220;9.884;2024-03-07T12:25:18;101697.72;;;7.53;79.99
16690;BME280;8458;52.220;9.884;2024-03-07T12:27:47;101698.53;;;7.53;81.60
16690;BME280;8458;52.220;9.884;2024-03-07T12:30:18;101692.63;;;7.50;81.22
16690;BME280;8458;52.220;9.884;2024-03-07T12:32:48;101691.97;;;7.48;80.64
16690;BME280;8458;52.220;9.884;2024-03-07T12:35:16;101693.06;;;7.47;79.99
16690;BME280;8458;52.220;9.884;2024-03-07T12:37:43;101697.31;;;7.43;78.29
16690;BME280;8458;52.220;9.884;2024-03-07T12:40:12;101690.97;;;7.35;79.56
16690;BME280;8458;52.220;9.884;2024-03-07T12:42:46;101686.94;;;7.38;79.63
16690;BME280;8458;52.220;9.884;2024-03-07T12:45:12;101685.88;;;7.32;79.47
16690;BME280;8458;52.220;9.884;2024-03-07T12:47:46;101678.03;;;7.29;77.60
16690;BME280;8458;52.220;9.884;2024-03-07T12:50:16;101682.25;;;7.39;74.21
16690;BME280;8458;52.220;9.884;2024-03-07T12:52:43;101686.28;;;7.43;73.63
16690;BME280;8458;52.220;9.884;2024-03-07T12:55:09;101676.25;;;7.55;74.18
16690;BME280;8458;52.220;9.884;2024-03-07T12:57:38;101678.06;;;7.75;75.07
16690;BME280;8458;52.220;9.884;2024-03-07T13:00:07;101679.22;;;7.92;74.05
16690;BME280;8458;52.220;9.884;2024-03-07T13:02:46;101684.28;;;7.95;74.69
16690;BME280;8458;52.220;9.884;2024-03-07T13:05:13;101676.50;;;7.85;74.73
16690;BME280;8458;52.220;9.884;2024-03-07T13:07:45;101680.38;;;7.78;74.56